createdAt,value
2022-10-24T03:00:30.266Z,15.60
2022-10-24T03:02:57.563Z,15.60
2022-10-24T03:05:24.695Z,15.60
2022-10-24T03:07:51.851Z,15.60
2022-10-24T03:10:19.121Z,15.50
2022-10-24T03:12:46.477Z,15.50
2022-10-24T03:15:14.104Z,15.50
2022-10-24T03:17:42.763Z,15.40
2022-10-24T03:20:10.448Z,15.40
2022-10-24T03:22:37.614Z,15.40
2022-10-24T03:25:06.305Z,15.30
2022-10-24T03:27:34.337Z,15.30
2022-10-24T03:30:02.039Z,15.30
2022-10-24T03:32:29.349Z,15.30
2022-10-24T03:34:56.604Z,15.40
2022-10-24T03:37:23.770Z,15.40
2022-10-24T03:42:18.584Z,15.30
2022-10-24T03:44:45.890Z,15.40
2022-10-24T03:49:40.721Z,15.20
2022-10-24T03:52:07.971Z,15.20
2022-10-24T03:54:35.628Z,15.30
2022-10-24T03:57:03.114Z,15.20
2022-10-24T03:59:30.512Z,15.30
2022-10-24T04:04:27.088Z,15.30
2022-10-24T04:06:54.503Z,15.20
2022-10-24T04:09:21.772Z,15.20
2022-10-24T04:14:18.333Z,15.20
2022-10-24T04:16:45.766Z,15.20
2022-10-24T04:19:12.963Z,15.20
2022-10-24T04:21:40.341Z,15.20
2022-10-24T04:24:07.534Z,15.20
2022-10-24T04:26:34.726Z,15.20
2022-10-24T04:29:01.849Z,15.20
2022-10-24T04:31:28.972Z,15.20
2022-10-24T04:33:56.170Z,15.20
2022-10-24T04:36:23.297Z,15.20
2022-10-24T04:38:50.649Z,15.20
2022-10-24T04:41:17.853Z,15.20
2022-10-24T04:43:44.994Z,15.20
2022-10-24T04:46:12.158Z,15.20
2022-10-24T04:48:39.464Z,15.20
2022-10-24T04:51:06.643Z,15.10
2022-10-24T04:53:33.862Z,15.10
2022-10-24T04:56:00.962Z,15.10
2022-10-24T04:58:28.114Z,15.10
2022-10-24T05:00:55.337Z,15.10
2022-10-24T05:03:23.281Z,15.10
2022-10-24T05:05:50.733Z,15.10
2022-10-24T05:08:18.254Z,15.10
2022-10-24T05:10:45.713Z,15.20
2022-10-24T05:13:13.087Z,15.20
2022-10-24T05:15:40.327Z,15.20
2022-10-24T05:18:07.619Z,15.20
2022-10-24T05:20:34.938Z,15.20
2022-10-24T05:25:29.702Z,15.10
2022-10-24T05:27:56.847Z,15.10
2022-10-24T05:30:24.000Z,15.10
2022-10-24T05:32:51.200Z,15.20
2022-10-24T05:35:18.404Z,15.10
2022-10-24T05:37:45.597Z,15.20
2022-10-24T05:40:14.110Z,15.20
2022-10-24T05:42:41.632Z,15.20
2022-10-24T05:45:10.648Z,15.30
2022-10-24T05:47:37.928Z,15.30
2022-10-24T05:50:06.046Z,15.30
2022-10-24T05:52:36.278Z,15.20
2022-10-24T05:55:08.245Z,15.20
2022-10-24T05:57:37.285Z,15.20
2022-10-24T06:00:12.170Z,15.20
2022-10-24T06:02:40.632Z,15.20
2022-10-24T06:05:09.058Z,15.20
2022-10-24T06:07:37.371Z,15.20
2022-10-24T06:10:05.624Z,15.30
2022-10-24T06:12:33.277Z,15.20
2022-10-24T06:15:00.675Z,15.00
2022-10-24T06:17:27.975Z,15.00
2022-10-24T06:19:55.108Z,15.00
2022-10-24T06:22:24.697Z,15.00
2022-10-24T06:24:51.869Z,14.90
2022-10-24T06:27:19.076Z,14.90
2022-10-24T06:29:46.366Z,14.90
2022-10-24T06:32:13.862Z,14.90
2022-10-24T06:34:42.510Z,14.90
2022-10-24T06:37:09.792Z,14.90
2022-10-24T06:39:36.924Z,15.00
2022-10-24T06:42:04.340Z,15.00
2022-10-24T06:46:59.052Z,15.00
2022-10-24T06:49:26.308Z,15.10
2022-10-24T06:51:57.498Z,15.20
2022-10-24T06:54:26.516Z,15.20
2022-10-24T06:56:56.756Z,15.20
2022-10-24T07:01:51.907Z,15.30
2022-10-24T07:06:46.913Z,15.30
2022-10-24T07:09:15.555Z,15.30
2022-10-24T07:11:44.134Z,15.40
2022-10-24T07:14:11.834Z,15.40
2022-10-24T07:16:42.004Z,15.50
2022-10-24T07:19:10.273Z,15.50
2022-10-24T07:31:33.454Z,15.50
2022-10-24T07:34:02.519Z,15.40
2022-10-24T07:39:01.573Z,15.40
2022-10-24T07:41:31.388Z,15.60
2022-10-24T07:44:04.227Z,15.60
2022-10-24T07:46:31.691Z,15.70
2022-10-24T07:51:30.645Z,15.70
2022-10-24T07:53:58.917Z,15.80
2022-10-24T07:56:27.150Z,15.80
2022-10-24T07:58:58.773Z,15.80
2022-10-24T08:03:55.048Z,15.60
2022-10-24T08:06:30.060Z,15.70
2022-10-24T08:08:57.301Z,15.80
2022-10-24T08:11:27.321Z,15.60
2022-10-24T08:13:57.231Z,15.50
2022-10-24T08:16:25.722Z,15.50
2022-10-24T08:18:55.445Z,15.50
2022-10-24T08:21:24.019Z,15.50
2022-10-24T08:23:53.569Z,15.50
2022-10-24T08:26:23.139Z,15.50
2022-10-24T08:28:50.627Z,15.50
2022-10-24T08:31:20.465Z,15.60
2022-10-24T08:33:48.139Z,15.70
2022-10-24T08:36:27.948Z,15.70
2022-10-24T08:38:55.733Z,15.80
2022-10-24T08:41:33.429Z,15.80
2022-10-24T08:44:04.391Z,15.80
2022-10-24T08:46:39.765Z,15.80
2022-10-24T08:49:20.375Z,15.80
2022-10-24T08:52:00.454Z,15.70
2022-10-24T08:54:41.551Z,15.60
2022-10-24T08:57:26.130Z,15.60
2022-10-24T08:59:58.455Z,15.60
2022-10-24T09:02:28.462Z,15.60
2022-10-24T09:05:16.508Z,15.70
2022-10-24T09:07:46.309Z,15.60
2022-10-24T09:10:27.892Z,15.70
2022-10-24T09:12:55.004Z,15.70
2022-10-24T09:15:29.311Z,15.50
2022-10-24T09:17:58.406Z,15.60
2022-10-24T09:20:33.384Z,15.60
2022-10-24T09:23:04.563Z,15.60
2022-10-24T09:25:36.504Z,15.60
2022-10-24T09:28:06.229Z,15.50
2022-10-24T09:30:36.385Z,15.40
2022-10-24T09:33:18.453Z,15.50
2022-10-24T09:35:46.755Z,15.50
2022-10-24T09:38:33.503Z,15.50
2022-10-24T09:41:06.285Z,15.60
2022-10-24T09:43:48.218Z,15.50
2022-10-24T09:46:17.908Z,15.50
2022-10-24T09:49:06.903Z,15.50
2022-10-24T09:51:41.415Z,15.50
2022-10-24T09:54:20.233Z,15.40
2022-10-24T09:56:54.657Z,15.50
2022-10-24T09:59:33.223Z,15.40
2022-10-24T10:02:19.090Z,15.30
2022-10-24T10:04:48.802Z,15.40
2022-10-24T10:07:25.352Z,15.30
2022-10-24T10:09:56.925Z,15.40
2022-10-24T10:12:40.511Z,15.40
2022-10-24T10:15:30.637Z,15.40
2022-10-24T10:18:04.267Z,15.40
2022-10-24T10:20:39.811Z,15.40
2022-10-24T10:23:27.139Z,15.40
2022-10-24T10:26:05.374Z,15.50
2022-10-24T10:28:36.641Z,15.30
2022-10-24T10:31:04.082Z,15.40
2022-10-24T10:36:14.849Z,15.50
2022-10-24T10:38:51.917Z,15.50
2022-10-24T10:41:33.886Z,15.40
2022-10-24T10:44:18.909Z,15.40
2022-10-24T10:47:08.324Z,15.30
2022-10-24T10:49:40.967Z,15.30
2022-10-24T10:52:25.196Z,15.40
2022-10-24T10:55:16.721Z,15.50
2022-10-24T10:58:02.404Z,15.50
2022-10-24T11:00:41.647Z,15.60
2022-10-24T11:03:27.319Z,15.70
2022-10-24T11:06:38.385Z,15.70
2022-10-24T11:09:37.038Z,15.80
2022-10-24T11:12:22.835Z,15.70
2022-10-24T11:15:03.616Z,15.60
2022-10-24T11:17:45.833Z,15.60
2022-10-24T11:20:35.403Z,15.40
2022-10-24T11:23:30.176Z,15.20
2022-10-24T11:26:08.611Z,15.10
2022-10-24T11:29:01.362Z,15.10
2022-10-24T11:31:39.975Z,15.10
2022-10-24T11:34:25.793Z,15.10
2022-10-24T11:37:01.577Z,15.20
2022-10-24T11:39:57.075Z,15.20
2022-10-24T11:42:52.419Z,15.10
2022-10-24T11:45:28.600Z,15.20
2022-10-24T11:48:06.497Z,15.10
2022-10-24T11:50:44.362Z,15.00
2022-10-24T11:53:27.165Z,15.10
2022-10-24T11:56:12.549Z,15.30
2022-10-24T11:58:49.185Z,15.20
2022-10-24T12:01:40.289Z,15.10
2022-10-24T12:04:26.250Z,15.10
2022-10-24T12:07:05.311Z,15.00
2022-10-24T12:10:01.561Z,15.00
2022-10-24T12:12:47.839Z,15.00
2022-10-24T12:15:53.817Z,15.00
2022-10-24T12:18:44.741Z,15.00
2022-10-24T12:21:26.265Z,15.00
2022-10-24T12:23:58.913Z,15.00
2022-10-24T12:26:34.587Z,14.90
2022-10-24T12:29:07.257Z,15.00
2022-10-24T12:31:37.598Z,14.90
2022-10-24T12:34:19.518Z,14.90
2022-10-24T12:37:09.425Z,15.00
2022-10-24T12:39:41.449Z,15.00
2022-10-24T12:42:22.467Z,15.00
2022-10-24T12:44:50.987Z,14.90
2022-10-24T12:47:31.570Z,14.80
2022-10-24T12:50:20.274Z,14.80
2022-10-24T12:52:47.661Z,14.80
2022-10-24T12:55:33.434Z,14.80
2022-10-24T12:58:23.420Z,14.80
2022-10-24T13:01:00.336Z,14.70
2022-10-24T13:03:52.992Z,14.80
2022-10-24T13:06:28.757Z,14.90
2022-10-24T13:09:04.870Z,15.00
2022-10-24T13:11:40.865Z,15.00
2022-10-24T13:14:16.918Z,15.10
2022-10-24T13:17:01.117Z,15.10
2022-10-24T13:19:29.274Z,15.10
2022-10-24T13:21:59.703Z,14.80
2022-10-24T13:24:28.880Z,14.50
2022-10-24T13:26:56.654Z,14.50
2022-10-24T13:29:23.725Z,14.40
2022-10-24T13:31:51.914Z,14.30
2022-10-24T13:34:23.617Z,14.20
2022-10-24T13:37:10.589Z,14.30
2022-10-24T13:39:59.640Z,14.20
2022-10-24T13:42:32.977Z,14.20
2022-10-24T13:45:25.278Z,14.20
2022-10-24T13:47:59.437Z,14.10
2022-10-24T13:50:30.773Z,14.20
2022-10-24T13:53:29.509Z,14.20
2022-10-24T13:56:03.717Z,14.10
2022-10-24T13:58:42.109Z,14.10
2022-10-24T14:01:21.903Z,14.10
2022-10-24T14:03:49.663Z,14.10
2022-10-24T14:06:23.066Z,14.10
2022-10-24T14:09:05.577Z,14.20
2022-10-24T14:11:35.200Z,14.20
2022-10-24T14:14:06.081Z,14.20
2022-10-24T14:16:35.808Z,14.10
2022-10-24T14:19:18.796Z,14.10
2022-10-24T14:21:48.942Z,14.00
2022-10-24T14:24:19.424Z,14.10
2022-10-24T14:26:48.003Z,14.20
2022-10-24T14:29:32.923Z,14.10
2022-10-24T14:32:02.504Z,14.10
2022-10-24T14:34:35.933Z,14.00
2022-10-24T14:37:07.216Z,14.00
2022-10-24T14:39:35.665Z,14.10
2022-10-24T14:42:03.209Z,14.00
2022-10-24T14:44:31.527Z,14.00
2022-10-24T14:47:25.969Z,14.10
2022-10-24T14:49:53.515Z,14.00
2022-10-24T14:52:39.032Z,13.90
2022-10-24T14:55:17.825Z,13.90
2022-10-24T14:57:51.189Z,14.00
2022-10-24T15:00:24.049Z,14.00
2022-10-24T15:02:56.900Z,13.90
2022-10-24T15:05:24.257Z,14.00
2022-10-24T15:08:28.019Z,14.00
2022-10-24T15:11:15.332Z,14.00
2022-10-24T15:13:59.991Z,13.90
2022-10-24T15:16:39.542Z,14.00
2022-10-24T15:19:14.774Z,14.00
2022-10-24T15:21:44.487Z,14.10
2022-10-24T15:24:21.961Z,14.10
2022-10-24T15:26:49.239Z,14.20
2022-10-24T15:29:22.755Z,14.10
2022-10-24T15:31:51.476Z,14.00
2022-10-24T15:34:23.618Z,14.00
2022-10-24T15:36:52.629Z,13.90
2022-10-24T15:39:22.349Z,14.00
2022-10-24T15:41:49.638Z,13.90
2022-10-24T15:44:30.434Z,13.80
2022-10-24T15:46:57.674Z,13.60
2022-10-24T15:49:24.887Z,13.70
2022-10-24T15:51:52.133Z,13.70
2022-10-24T15:54:22.098Z,13.80
2022-10-24T15:56:50.116Z,13.70
2022-10-24T15:59:18.523Z,13.70
2022-10-24T16:01:54.702Z,13.60
2022-10-24T16:04:22.090Z,13.60
2022-10-24T16:06:50.649Z,13.60
2022-10-24T16:09:21.270Z,13.60
2022-10-24T16:11:49.128Z,13.60
2022-10-24T16:14:20.119Z,13.60
2022-10-24T16:16:47.856Z,13.50
2022-10-24T16:19:15.094Z,13.50
2022-10-24T16:21:42.743Z,13.50
2022-10-24T16:24:12.480Z,13.40
2022-10-24T16:26:41.257Z,13.40
2022-10-24T16:29:08.493Z,13.50
2022-10-24T16:31:36.582Z,13.50
2022-10-24T16:34:04.313Z,13.40
2022-10-24T16:39:00.102Z,13.40
2022-10-24T16:41:27.473Z,13.40
2022-10-24T16:43:56.130Z,13.40
2022-10-24T16:46:24.602Z,13.40
2022-10-24T16:48:52.056Z,13.40
2022-10-24T16:51:32.396Z,13.40
2022-10-24T16:54:00.930Z,13.30
2022-10-24T16:56:28.920Z,13.40
2022-10-24T16:58:56.204Z,13.40
2022-10-24T17:01:23.473Z,13.40
2022-10-24T17:03:50.739Z,13.40
2022-10-24T17:06:18.395Z,13.40
2022-10-24T17:08:45.838Z,13.50
2022-10-24T17:11:32.619Z,13.40
2022-10-24T17:14:00.245Z,13.50
2022-10-24T17:16:27.437Z,13.40
2022-10-24T17:19:05.524Z,13.40
2022-10-24T17:21:39.739Z,13.40
2022-10-24T17:24:12.837Z,13.40
2022-10-24T17:26:41.531Z,13.40
2022-10-24T17:29:12.455Z,13.50
2022-10-24T17:31:39.803Z,13.50
2022-10-24T17:34:07.143Z,13.50
2022-10-24T17:36:38.020Z,13.60
2022-10-24T17:39:26.661Z,13.60
2022-10-24T17:41:54.591Z,13.60
2022-10-24T17:44:22.225Z,13.50
2022-10-24T17:46:55.924Z,13.60
2022-10-24T17:49:25.546Z,13.60
2022-10-24T17:51:52.696Z,13.60
2022-10-24T17:54:19.786Z,13.50
2022-10-24T17:56:47.019Z,13.40
2022-10-24T17:59:14.702Z,13.40
2022-10-24T18:01:42.782Z,13.40
2022-10-24T18:04:10.363Z,13.40
2022-10-24T18:06:42.122Z,13.30
2022-10-24T18:09:10.949Z,13.30
2022-10-24T18:11:38.832Z,13.30
2022-10-24T18:14:06.006Z,13.10
2022-10-24T18:16:33.510Z,13.20
2022-10-24T18:19:00.682Z,13.20
2022-10-24T18:21:28.417Z,13.20
2022-10-24T18:23:56.402Z,13.20
2022-10-24T18:26:25.855Z,13.20
2022-10-24T18:28:54.509Z,13.20
2022-10-24T18:31:25.101Z,13.10
2022-10-24T18:33:52.741Z,13.20
2022-10-24T18:36:22.966Z,13.20
2022-10-24T18:38:50.702Z,13.20
2022-10-24T18:41:43.366Z,13.20
2022-10-24T18:44:22.681Z,13.10
2022-10-24T18:46:51.188Z,13.00
2022-10-24T18:49:19.352Z,13.00
2022-10-24T18:52:10.657Z,13.10
2022-10-24T18:54:46.661Z,13.00
2022-10-24T18:57:29.751Z,13.00
2022-10-24T18:59:58.344Z,13.00
2022-10-24T19:02:49.814Z,13.00
2022-10-24T19:05:24.469Z,12.80
2022-10-24T19:07:52.064Z,12.80
2022-10-24T19:10:23.246Z,12.80
2022-10-24T19:12:51.577Z,12.80
2022-10-24T19:15:19.317Z,12.70
2022-10-24T19:17:48.638Z,12.80
2022-10-24T19:20:19.967Z,12.80
2022-10-24T19:22:47.550Z,12.80
2022-10-24T19:27:43.419Z,12.80
2022-10-24T19:30:11.653Z,12.70
2022-10-24T19:32:38.853Z,12.70
2022-10-24T19:35:06.432Z,12.60
2022-10-24T19:37:33.650Z,12.60
2022-10-24T19:40:00.845Z,12.60
2022-10-24T19:44:56.529Z,12.60
2022-10-24T19:47:23.811Z,12.50
2022-10-24T19:49:51.073Z,12.50
2022-10-24T19:52:18.644Z,12.50
2022-10-24T19:54:45.844Z,12.50
2022-10-24T19:57:13.054Z,12.50
2022-10-24T19:59:40.337Z,12.50
2022-10-24T20:02:08.609Z,12.50
2022-10-24T20:04:40.177Z,12.50
2022-10-24T20:07:08.995Z,12.50
2022-10-24T20:09:36.576Z,12.60
2022-10-24T20:12:04.975Z,12.50
2022-10-24T20:14:32.199Z,12.50
2022-10-24T20:16:59.362Z,12.60
2022-10-24T20:19:27.015Z,12.70
2022-10-24T20:24:26.128Z,12.50
2022-10-24T20:26:53.355Z,12.60
2022-10-24T20:29:20.546Z,12.60
2022-10-24T20:31:48.132Z,12.70
2022-10-24T20:34:15.390Z,12.70
2022-10-24T20:36:44.741Z,12.70
2022-10-24T20:39:13.508Z,12.70
2022-10-24T20:41:40.739Z,12.70
2022-10-24T20:44:08.415Z,12.60
2022-10-24T20:46:36.475Z,12.60
2022-10-24T20:49:03.907Z,12.60
2022-10-24T20:51:31.382Z,12.60
2022-10-24T20:53:58.579Z,12.70
2022-10-24T20:56:26.695Z,12.70
2022-10-24T20:58:55.413Z,12.70
